sensor_id;sensor_type;location;lat;lon;timestamp;P1;durP1;ratioP1;P2;durP2;ratioP2
25169;SDS011;13129;48.012;10.352;2023-05-10T03:31:17;1.20;;;1.20;;
25169;SDS011;13129;48.012;10.352;2023-05-10T03:33:47;1.10;;;1.10;;
25169;SDS011;13129;48.012;10.352;2023-05-10T03:36:13;1.50;;;1.40;;
25169;SDS011;13129;48.012;10.352;2023-05-10T03:38:39;1.95;;;1.85;;
25169;SDS011;13129;48.012;10.352;2023-05-10T03:41:05;1.83;;;1.65;;
25169;SDS011;13129;48.012;10.352;2023-05-10T03:43:31;1.92;;;1.70;;
25169;SDS011;13129;48.012;10.352;2023-05-10T03:45:56;1.85;;;1.50;;
25169;SDS011;13129;48.012;10.352;2023-05-10T03:48:22;1.60;;;1.40;;
25169;SDS011;13129;48.012;10.352;2023-05-10T03:50:47;1.58;;;1.30;;
25169;SDS011;13129;48.012;10.352;2023-05-10T03:53:14;1.60;;;1.50;;
25169;SDS011;13129;48.012;10.352;2023-05-10T03:55:40;1.60;;;1.50;;
25169;SDS011;13129;48.012;10.352;2023-05-10T03:58:06;1.63;;;1.45;;
25169;SDS011;13129;48.012;10.352;2023-05-10T04:00:31;1.70;;;1.40;;
25169;SDS011;13129;48.012;10.352;2023-05-10T04:02:57;1.40;;;1.27;;
25169;SDS011;13129;48.012;10.352;2023-05-10T04:05:23;1.02;;;0.90;;
25169;SDS011;13129;48.012;10.352;2023-05-10T04:07:49;0.80;;;0.80;;
25169;SDS011;13129;48.012;10.352;2023-05-10T04:10:16;2.22;;;1.67;;
25169;SDS011;13129;48.012;10.352;2023-05-10T04:12:42;1.77;;;1.67;;
25169;SDS011;13129;48.012;10.352;2023-05-10T04:15:08;1.25;;;1.25;;
25169;SDS011;13129;48.012;10.352;2023-05-10T04:17:34;1.30;;;1.30;;
25169;SDS011;13129;48.012;10.352;2023-05-10T04:19:59;2.70;;;1.27;;
25169;SDS011;13129;48.012;10.352;2023-05-10T04:22:25;1.23;;;0.90;;
25169;SDS011;13129;48.012;10.352;2023-05-10T04:24:52;1.00;;;1.00;;
25169;SDS011;13129;48.012;10.352;2023-05-10T04:27:18;0.90;;;0.65;;
25169;SDS011;13129;48.012;10.352;2023-05-10T04:29:43;0.70;;;0.70;;
25169;SDS011;13129;48.012;10.352;2023-05-10T04:32:09;1.40;;;1.08;;
25169;SDS011;13129;48.012;10.352;2023-05-10T04:34:35;1.27;;;1.17;;
25169;SDS011;13129;48.012;10.352;2023-05-10T04:37:01;0.93;;;0.90;;
25169;SDS011;13129;48.012;10.352;2023-05-10T04:39:27;1.10;;;1.10;;
25169;SDS011;13129;48.012;10.352;2023-05-10T04:41:52;1.52;;;1.42;;
25169;SDS011;13129;48.012;10.352;2023-05-10T04:44:18;2.55;;;2.35;;
25169;SDS011;13129;48.012;10.352;2023-05-10T04:46:44;1.60;;;1.50;;
25169;SDS011;13129;48.012;10.352;2023-05-10T04:49:09;2.13;;;1.90;;
25169;SDS011;13129;48.012;10.352;2023-05-10T04:51:35;2.60;;;2.40;;
25169;SDS011;13129;48.012;10.352;2023-05-10T04:54:00;2.42;;;2.22;;
25169;SDS011;13129;48.012;10.352;2023-05-10T04:56:26;1.88;;;1.77;;
25169;SDS011;13129;48.012;10.352;2023-05-10T04:58:52;1.70;;;1.60;;
25169;SDS011;13129;48.012;10.352;2023-05-10T05:01:17;2.13;;;2.03;;
25169;SDS011;13129;48.012;10.352;2023-05-10T05:03:43;1.90;;;1.80;;
25169;SDS011;13129;48.012;10.352;2023-05-10T05:06:09;1.40;;;1.40;;
25169;SDS011;13129;48.012;10.352;2023-05-10T05:08:34;1.80;;;1.70;;
25169;SDS011;13129;48.012;10.352;2023-05-10T05:11:00;2.08;;;1.73;;
25169;SDS011;13129;48.012;10.352;2023-05-10T05:13:26;1.38;;;1.27;;
25169;SDS011;13129;48.012;10.352;2023-05-10T05:15:51;1.77;;;1.60;;
25169;SDS011;13129;48.012;10.352;2023-05-10T05:18:18;1.52;;;1.42;;
25169;SDS011;13129;48.012;10.352;2023-05-10T05:20:43;2.47;;;2.28;;
25169;SDS011;13129;48.012;10.352;2023-05-10T05:23:09;1.52;;;1.40;;
25169;SDS011;13129;48.012;10.352;2023-05-10T05:25:35;2.13;;;1.55;;
25169;SDS011;13129;48.012;10.352;2023-05-10T05:28:01;2.97;;;1.70;;
25169;SDS011;13129;48.012;10.352;2023-05-10T05:30:26;1.80;;;1.70;;
25169;SDS011;13129;48.012;10.352;2023-05-10T05:32:52;1.42;;;1.33;;
25169;SDS011;13129;48.012;10.352;2023-05-10T05:35:18;1.83;;;1.70;;
25169;SDS011;13129;48.012;10.352;2023-05-10T05:37:46;3.15;;;1.90;;
25169;SDS011;13129;48.012;10.352;2023-05-10T05:40:13;2.10;;;2.00;;
25169;SDS011;13129;48.012;10.352;2023-05-10T05:42:41;2.28;;;2.05;;
25169;SDS011;13129;48.012;10.352;2023-05-10T05:45:07;2.65;;;2.45;;
25169;SDS011;13129;48.012;10.352;2023-05-10T05:47:34;2.97;;;2.70;;
25169;SDS011;13129;48.012;10.352;2023-05-10T05:50:01;2.55;;;2.35;;
25169;SDS011;13129;48.012;10.352;2023-05-10T05:52:29;2.78;;;2.30;;
25169;SDS011;13129;48.012;10.352;2023-05-10T05:54:55;1.92;;;1.83;;
25169;SDS011;13129;48.012;10.352;2023-05-10T05:57:21;2.03;;;1.92;;
25169;SDS011;13129;48.012;10.352;2023-05-10T05:59:47;2.28;;;2.17;;
25169;SDS011;13129;48.012;10.352;2023-05-10T06:02:13;2.22;;;2.03;;
25169;SDS011;13129;48.012;10.352;2023-05-10T06:04:39;2.40;;;2.20;;
25169;SDS011;13129;48.012;10.352;2023-05-10T06:07:05;2.40;;;2.20;;
25169;SDS011;13129;48.012;10.352;2023-05-10T06:09:31;2.30;;;2.03;;
25169;SDS011;13129;48.012;10.352;2023-05-10T06:11:57;2.38;;;2.28;;
25169;SDS011;13129;48.012;10.352;2023-05-10T06:14:23;2.35;;;2.17;;
25169;SDS011;13129;48.012;10.352;2023-05-10T06:16:49;2.47;;;2.28;;
25169;SDS011;13129;48.012;10.352;2023-05-10T06:19:15;2.38;;;2.10;;
25169;SDS011;13129;48.012;10.352;2023-05-10T06:21:41;2.38;;;2.15;;
25169;SDS011;13129;48.012;10.352;2023-05-10T06:24:06;2.50;;;2.00;;
25169;SDS011;13129;48.012;10.352;2023-05-10T06:26:32;2.33;;;2.13;;
25169;SDS011;13129;48.012;10.352;2023-05-10T06:28:58;4.45;;;2.80;;
25169;SDS011;13129;48.012;10.352;2023-05-10T06:31:24;2.40;;;2.20;;
25169;SDS011;13129;48.012;10.352;2023-05-10T06:33:50;2.17;;;2.08;;
25169;SDS011;13129;48.012;10.352;2023-05-10T06:36:16;1.92;;;1.83;;
25169;SDS011;13129;48.012;10.352;2023-05-10T06:38:48;2.38;;;1.73;;
25169;SDS011;13129;48.012;10.352;2023-05-10T06:41:14;2.20;;;2.10;;
25169;SDS011;13129;48.012;10.352;2023-05-10T06:43:41;2.20;;;2.00;;
25169;SDS011;13129;48.012;10.352;2023-05-10T06:46:08;2.58;;;2.33;;
25169;SDS011;13129;48.012;10.352;2023-05-10T06:48:34;2.22;;;2.10;;
25169;SDS011;13129;48.012;10.352;2023-05-10T06:51:02;2.10;;;2.00;;
25169;SDS011;13129;48.012;10.352;2023-05-10T06:53:28;1.83;;;1.73;;
25169;SDS011;13129;48.012;10.352;2023-05-10T06:55:54;1.80;;;1.70;;
25169;SDS011;13129;48.012;10.352;2023-05-10T06:58:21;1.52;;;1.40;;
25169;SDS011;13129;48.012;10.352;2023-05-10T07:00:47;1.60;;;1.50;;
25169;SDS011;13129;48.012;10.352;2023-05-10T07:03:15;1.65;;;1.55;;
25169;SDS011;13129;48.012;10.352;2023-05-10T07:05:41;1.58;;;1.48;;
25169;SDS011;13129;48.012;10.352;2023-05-10T07:08:07;1.73;;;1.63;;
25169;SDS011;13129;48.012;10.352;2023-05-10T07:10:33;1.73;;;1.63;;
25169;SDS011;13129;48.012;10.352;2023-05-10T07:12:59;1.95;;;1.85;;
25169;SDS011;13129;48.012;10.352;2023-05-10T07:15:26;1.63;;;1.52;;
25169;SDS011;13129;48.012;10.352;2023-05-10T07:17:53;3.05;;;1.55;;
25169;SDS011;13129;48.012;10.352;2023-05-10T07:20:19;2.20;;;1.90;;
25169;SDS011;13129;48.012;10.352;2023-05-10T07:22:45;1.95;;;1.85;;
25169;SDS011;13129;48.012;10.352;2023-05-10T07:25:13;1.80;;;1.70;;
25169;SDS011;13129;48.012;10.352;2023-05-10T07:27:42;1.65;;;1.55;;
25169;SDS011;13129;48.012;10.352;2023-05-10T07:30:11;1.83;;;1.73;;
25169;SDS011;13129;48.012;10.352;2023-05-10T07:32:37;1.63;;;1.52;;
25169;SDS011;13129;48.012;10.352;2023-05-10T07:35:05;2.15;;;2.03;;
25169;SDS011;13129;48.012;10.352;2023-05-10T07:37:34;3.38;;;3.10;;
25169;SDS011;13129;48.012;10.352;2023-05-10T07:40:01;1.85;;;1.75;;
25169;SDS011;13129;48.012;10.352;2023-05-10T07:42:30;1.92;;;1.75;;
25169;SDS011;13129;48.012;10.352;2023-05-10T07:44:57;1.75;;;1.40;;
25169;SDS011;13129;48.012;10.352;2023-05-10T07:47:24;2.30;;;2.10;;
25169;SDS011;13129;48.012;10.352;2023-05-10T07:49:57;1.73;;;1.63;;
25169;SDS011;13129;48.012;10.352;2023-05-10T07:52:26;2.17;;;1.98;;
25169;SDS011;13129;48.012;10.352;2023-05-10T07:54:52;2.05;;;1.95;;
25169;SDS011;13129;48.012;10.352;2023-05-10T07:57:18;2.40;;;2.30;;
25169;SDS011;13129;48.012;10.352;2023-05-10T07:59:44;1.50;;;1.40;;
25169;SDS011;13129;48.012;10.352;2023-05-10T08:02:10;1.42;;;1.33;;
25169;SDS011;13129;48.012;10.352;2023-05-10T08:04:36;1.40;;;1.30;;
25169;SDS011;13129;48.012;10.352;2023-05-10T08:07:02;1.85;;;1.40;;
25169;SDS011;13129;48.012;10.352;2023-05-10T08:09:29;1.52;;;1.42;;
25169;SDS011;13129;48.012;10.352;2023-05-10T08:11:55;3.65;;;3.35;;
25169;SDS011;13129;48.012;10.352;2023-05-10T08:14:21;4.55;;;3.67;;
25169;SDS011;13129;48.012;10.352;2023-05-10T08:16:47;4.70;;;4.18;;
25169;SDS011;13129;48.012;10.352;2023-05-10T08:19:13;3.72;;;3.40;;
25169;SDS011;13129;48.012;10.352;2023-05-10T08:21:38;1.95;;;1.85;;
25169;SDS011;13129;48.012;10.352;2023-05-10T08:24:05;4.53;;;4.15;;
25169;SDS011;13129;48.012;10.352;2023-05-10T08:26:32;3.50;;;3.20;;
25169;SDS011;13129;48.012;10.352;2023-05-10T08:28:57;2.83;;;1.65;;
25169;SDS011;13129;48.012;10.352;2023-05-10T08:31:23;1.65;;;1.55;;
25169;SDS011;13129;48.012;10.352;2023-05-10T08:33:49;1.60;;;1.50;;
25169;SDS011;13129;48.012;10.352;2023-05-10T08:36:16;1.27;;;1.20;;
25169;SDS011;13129;48.012;10.352;2023-05-10T08:38:46;1.50;;;1.40;;
25169;SDS011;13129;48.012;10.352;2023-05-10T08:41:15;1.55;;;1.38;;
25169;SDS011;13129;48.012;10.352;2023-05-10T08:43:41;1.55;;;1.40;;
25169;SDS011;13129;48.012;10.352;2023-05-10T08:46:11;1.23;;;1.20;;
25169;SDS011;13129;48.012;10.352;2023-05-10T08:48:44;1.73;;;1.30;;
25169;SDS011;13129;48.012;10.352;2023-05-10T08:51:13;1.30;;;1.20;;
25169;SDS011;13129;48.012;10.352;2023-05-10T08:53:48;1.88;;;1.77;;
25169;SDS011;13129;48.012;10.352;2023-05-10T08:56:15;1.50;;;1.40;;
25169;SDS011;13129;48.012;10.352;2023-05-10T08:58:42;1.70;;;1.60;;
25169;SDS011;13129;48.012;10.352;2023-05-10T09:01:08;1.30;;;1.20;;
25169;SDS011;13129;48.012;10.352;2023-05-10T09:03:35;1.92;;;1.83;;
25169;SDS011;13129;48.012;10.352;2023-05-10T09:06:03;2.63;;;1.50;;
25169;SDS011;13129;48.012;10.352;2023-05-10T09:08:30;1.60;;;1.30;;
25169;SDS011;13129;48.012;10.352;2023-05-10T09:10:56;1.30;;;1.20;;
25169;SDS011;13129;48.012;10.352;2023-05-10T09:13:22;1.77;;;1.40;;
25169;SDS011;13129;48.012;10.352;2023-05-10T09:15:49;3.00;;;1.40;;
25169;SDS011;13129;48.012;10.352;2023-05-10T09:18:16;1.25;;;1.17;;
25169;SDS011;13129;48.012;10.352;2023-05-10T09:20:42;2.55;;;1.50;;
25169;SDS011;13129;48.012;10.352;2023-05-10T09:23:07;3.63;;;1.88;;
25169;SDS011;13129;48.012;10.352;2023-05-10T09:25:33;3.20;;;1.75;;
25169;SDS011;13129;48.012;10.352;2023-05-10T09:28:00;1.60;;;1.50;;
25169;SDS011;13129;48.012;10.352;2023-05-10T09:30:29;2.40;;;1.60;;
25169;SDS011;13129;48.012;10.352;2023-05-10T09:32:55;1.83;;;1.70;;
25169;SDS011;13129;48.012;10.352;2023-05-10T09:35:23;1.38;;;1.25;;
25169;SDS011;13129;48.012;10.352;2023-05-10T09:37:51;1.60;;;1.50;;
25169;SDS011;13129;48.012;10.352;2023-05-10T09:40:22;1.58;;;1.40;;
25169;SDS011;13129;48.012;10.352;2023-05-10T09:45:25;2.45;;;2.25;;
25169;SDS011;13129;48.012;10.352;2023-05-10T09:47:55;1.83;;;1.67;;
25169;SDS011;13129;48.012;10.352;2023-05-10T09:50:22;2.35;;;1.70;;
25169;SDS011;13129;48.012;10.352;2023-05-10T09:55:20;1.60;;;1.52;;
25169;SDS011;13129;48.012;10.352;2023-05-10T09:57:47;1.50;;;1.50;;
25169;SDS011;13129;48.012;10.352;2023-05-10T10:00:17;1.70;;;1.60;;
25169;SDS011;13129;48.012;10.352;2023-05-10T10:02:48;1.10;;;1.10;;
25169;SDS011;13129;48.012;10.352;2023-05-10T10:05:20;1.20;;;1.13;;
25169;SDS011;13129;48.012;10.352;2023-05-10T10:07:45;1.23;;;1.13;;
25169;SDS011;13129;48.012;10.352;2023-05-10T10:10:12;2.95;;;1.20;;
25169;SDS011;13129;48.012;10.352;2023-05-10T10:12:38;1.30;;;1.20;;
25169;SDS011;13129;48.012;10.352;2023-05-10T10:15:05;3.47;;;1.40;;
25169;SDS011;13129;48.012;10.352;2023-05-10T10:17:32;1.90;;;1.27;;
25169;SDS011;13129;48.012;10.352;2023-05-10T10:20:02;1.88;;;1.20;;
25169;SDS011;13129;48.012;10.352;2023-05-10T10:22:28;1.45;;;1.33;;
25169;SDS011;13129;48.012;10.352;2023-05-10T10:24:54;1.50;;;1.40;;
25169;SDS011;13129;48.012;10.352;2023-05-10T10:33:13;1.27;;;1.27;;
25169;SDS011;13129;48.012;10.352;2023-05-10T10:36:03;1.83;;;1.73;;
25169;SDS011;13129;48.012;10.352;2023-05-10T10:38:54;2.15;;;1.95;;
25169;SDS011;13129;48.012;10.352;2023-05-10T10:47:06;2.67;;;1.80;;
25169;SDS011;13129;48.012;10.352;2023-05-10T10:55:00;1.35;;;1.23;;
25169;SDS011;13129;48.012;10.352;2023-05-10T11:00:38;1.33;;;1.33;;
25169;SDS011;13129;48.012;10.352;2023-05-10T11:05:40;1.38;;;1.33;;
25169;SDS011;13129;48.012;10.352;2023-05-10T11:08:16;1.25;;;1.20;;
25169;SDS011;13129;48.012;10.352;2023-05-10T11:10:52;2.78;;;1.40;;
25169;SDS011;13129;48.012;10.352;2023-05-10T11:13:33;2.80;;;1.30;;
25169;SDS011;13129;48.012;10.352;2023-05-10T11:16:25;1.65;;;1.27;;
25169;SDS011;13129;48.012;10.352;2023-05-10T11:21:27;1.60;;;1.50;;
25169;SDS011;13129;48.012;10.352;2023-05-10T11:23:54;1.27;;;1.20;;
25169;SDS011;13129;48.012;10.352;2023-05-10T11:26:22;2.33;;;1.73;;
25169;SDS011;13129;48.012;10.352;2023-05-10T11:28:59;1.88;;;1.50;;
25169;SDS011;13129;48.012;10.352;2023-05-10T11:31:26;1.27;;;1.20;;
25169;SDS011;13129;48.012;10.352;2023-05-10T11:33:54;1.63;;;1.17;;
25169;SDS011;13129;48.012;10.352;2023-05-10T11:36:23;1.60;;;1.50;;
25169;SDS011;13129;48.012;10.352;2023-05-10T11:38:54;1.20;;;1.10;;
25169;SDS011;13129;48.012;10.352;2023-05-10T11:41:21;1.13;;;1.13;;
25169;SDS011;13129;48.012;10.352;2023-05-10T11:43:54;1.23;;;1.13;;
25169;SDS011;13129;48.012;10.352;2023-05-10T11:46:21;1.88;;;1.08;;
25169;SDS011;13129;48.012;10.352;2023-05-10T11:48:49;1.35;;;0.88;;
25169;SDS011;13129;48.012;10.352;2023-05-10T11:51:19;2.22;;;1.10;;
25169;SDS011;13129;48.012;10.352;2023-05-10T11:53:49;1.25;;;0.90;;
25169;SDS011;13129;48.012;10.352;2023-05-10T11:56:20;2.20;;;1.38;;
25169;SDS011;13129;48.012;10.352;2023-05-10T11:58:51;1.67;;;0.90;;
25169;SDS011;13129;48.012;10.352;2023-05-10T12:01:21;1.48;;;0.90;;
25169;SDS011;13129;48.012;10.352;2023-05-10T12:03:48;1.33;;;1.00;;
25169;SDS011;13129;48.012;10.352;2023-05-10T12:06:15;1.30;;;1.20;;
25169;SDS011;13129;48.012;10.352;2023-05-10T12:08:44;1.27;;;1.02;;
25169;SDS011;13129;48.012;10.352;2023-05-10T12:11:11;1.55;;;1.40;;
25169;SDS011;13129;48.012;10.352;2023-05-10T12:13:42;1.20;;;1.20;;
25169;SDS011;13129;48.012;10.352;2023-05-10T12:19:07;1.60;;;1.50;;
25169;SDS011;13129;48.012;10.352;2023-05-10T12:21:33;2.88;;;1.45;;
25169;SDS011;13129;48.012;10.352;2023-05-10T12:24:00;1.13;;;1.05;;
25169;SDS011;13129;48.012;10.352;2023-05-10T12:26:27;0.80;;;0.80;;
25169;SDS011;13129;48.012;10.352;2023-05-10T12:28:53;1.10;;;1.10;;
25169;SDS011;13129;48.012;10.352;2023-05-10T12:31:20;1.00;;;1.00;;
25169;SDS011;13129;48.012;10.352;2023-05-10T12:33:46;1.35;;;1.25;;
25169;SDS011;13129;48.012;10.352;2023-05-10T12:36:14;1.75;;;1.13;;
25169;SDS011;13129;48.012;10.352;2023-05-10T12:38:41;1.13;;;1.00;;
25169;SDS011;13129;48.012;10.352;2023-05-10T12:41:09;1.45;;;1.30;;
25169;SDS011;13129;48.012;10.352;2023-05-10T12:43:36;1.70;;;1.10;;
25169;SDS011;13129;48.012;10.352;2023-05-10T12:46:10;1.02;;;0.90;;
25169;SDS011;13129;48.012;10.352;2023-05-10T12:48:38;1.13;;;1.02;;
25169;SDS011;13129;48.012;10.352;2023-05-10T12:51:05;1.20;;;1.10;;
25169;SDS011;13129;48.012;10.352;2023-05-10T12:53:34;1.33;;;1.00;;
25169;SDS011;13129;48.012;10.352;2023-05-10T12:56:00;2.63;;;1.83;;
25169;SDS011;13129;48.012;10.352;2023-05-10T12:58:26;1.15;;;1.00;;
25169;SDS011;13129;48.012;10.352;2023-05-10T13:00:52;0.98;;;0.98;;
25169;SDS011;13129;48.012;10.352;2023-05-10T13:03:18;3.08;;;1.27;;
25169;SDS011;13129;48.012;10.352;2023-05-10T13:05:43;3.50;;;1.35;;
25169;SDS011;13129;48.012;10.352;2023-05-10T13:08:09;1.60;;;1.50;;
25169;SDS011;13129;48.012;10.352;2023-05-10T13:10:35;1.75;;;1.60;;
25169;SDS011;13129;48.012;10.352;2023-05-10T13:13:01;2.08;;;1.98;;
25169;SDS011;13129;48.012;10.352;2023-05-10T13:15:26;2.80;;;1.92;;
25169;SDS011;13129;48.012;10.352;2023-05-10T13:17:52;3.28;;;2.20;;
25169;SDS011;13129;48.012;10.352;2023-05-10T13:20:19;2.90;;;1.63;;
25169;SDS011;13129;48.012;10.352;2023-05-10T13:22:44;2.53;;;1.60;;
25169;SDS011;13129;48.012;10.352;2023-05-10T13:25:10;1.83;;;1.48;;
25169;SDS011;13129;48.012;10.352;2023-05-10T13:27:40;2.25;;;1.38;;
25169;SDS011;13129;48.012;10.352;2023-05-10T13:30:06;1.65;;;1.02;;
25169;SDS011;13129;48.012;10.352;2023-05-10T13:32:33;2.80;;;1.33;;
25169;SDS011;13129;48.012;10.352;2023-05-10T13:34:58;3.47;;;3.17;;
25169;SDS011;13129;48.012;10.352;2023-05-10T13:37:24;2.95;;;2.60;;
25169;SDS011;13129;48.012;10.352;2023-05-10T13:39:50;1.70;;;1.60;;
25169;SDS011;13129;48.012;10.352;2023-05-10T13:42:16;1.30;;;1.30;;
25169;SDS011;13129;48.012;10.352;2023-05-10T13:44:42;2.75;;;2.35;;
25169;SDS011;13129;48.012;10.352;2023-05-10T13:47:08;1.42;;;1.33;;
25169;SDS011;13129;48.012;10.352;2023-05-10T13:49:33;1.30;;;1.20;;
25169;SDS011;13129;48.012;10.352;2023-05-10T13:51:59;2.40;;;2.20;;
25169;SDS011;13129;48.012;10.352;2023-05-10T13:54:31;1.70;;;1.60;;
25169;SDS011;13129;48.012;10.352;2023-05-10T13:57:00;1.67;;;1.17;;
25169;SDS011;13129;48.012;10.352;2023-05-10T13:59:26;1.23;;;1.23;;
25169;SDS011;13129;48.012;10.352;2023-05-10T14:01:52;1.95;;;0.95;;
25169;SDS011;13129;48.012;10.352;2023-05-10T14:04:18;1.88;;;0.80;;
25169;SDS011;13129;48.012;10.352;2023-05-10T14:06:43;0.88;;;0.70;;
25169;SDS011;13129;48.012;10.352;2023-05-10T14:09:09;1.20;;;1.10;;
25169;SDS011;13129;48.012;10.352;2023-05-10T14:11:35;0.90;;;0.90;;
25169;SDS011;13129;48.012;10.352;2023-05-10T14:14:00;1.30;;;0.90;;
25169;SDS011;13129;48.012;10.352;2023-05-10T14:16:26;1.08;;;0.90;;
25169;SDS011;13129;48.012;10.352;2023-05-10T14:18:52;1.08;;;0.70;;
25169;SDS011;13129;48.012;10.352;2023-05-10T14:21:18;0.90;;;0.90;;
25169;SDS011;13129;48.012;10.352;2023-05-10T14:23:43;1.08;;;0.98;;
25169;SDS011;13129;48.012;10.352;2023-05-10T14:26:09;0.85;;;0.80;;
25169;SDS011;13129;48.012;10.352;2023-05-10T14:28:35;0.75;;;0.75;;
25169;SDS011;13129;48.012;10.352;2023-05-10T14:31:01;1.42;;;0.90;;
25169;SDS011;13129;48.012;10.352;2023-05-10T14:33:27;1.10;;;1.10;;
25169;SDS011;13129;48.012;10.352;2023-05-10T14:35:53;1.33;;;1.23;;
25169;SDS011;13129;48.012;10.352;2023-05-10T14:38:21;1.67;;;1.40;;
25169;SDS011;13129;48.012;10.352;2023-05-10T14:40:47;1.45;;;1.35;;
25169;SDS011;13129;48.012;10.352;2023-05-10T14:43:13;1.20;;;1.20;;
25169;SDS011;13129;48.012;10.352;2023-05-10T14:45:38;1.23;;;1.13;;
25169;SDS011;13129;48.012;10.352;2023-05-10T14:48:04;1.30;;;1.20;;
25169;SDS011;13129;48.012;10.352;2023-05-10T14:50:30;1.30;;;1.20;;
25169;SDS011;13129;48.012;10.352;2023-05-10T14:52:57;1.20;;;1.20;;
25169;SDS011;13129;48.012;10.352;2023-05-10T14:55:23;1.40;;;1.30;;
25169;SDS011;13129;48.012;10.352;2023-05-10T14:57:49;1.58;;;1.40;;
25169;SDS011;13129;48.012;10.352;2023-05-10T15:00:15;1.40;;;1.30;;
25169;SDS011;13129;48.012;10.352;2023-05-10T15:02:42;1.52;;;1.17;;
25169;SDS011;13129;48.012;10.352;2023-05-10T15:05:07;1.02;;;1.02;;
25169;SDS011;13129;48.012;10.352;2023-05-10T15:07:33;1.33;;;1.13;;
25169;SDS011;13129;48.012;10.352;2023-05-10T15:09:59;1.30;;;1.20;;
25169;SDS011;13129;48.012;10.352;2023-05-10T15:12:25;3.95;;;1.70;;
25169;SDS011;13129;48.012;10.352;2023-05-10T15:14:50;2.85;;;2.42;;
25169;SDS011;13129;48.012;10.352;2023-05-10T15:17:16;7.97;;;6.13;;
25169;SDS011;13129;48.012;10.352;2023-05-10T15:19:42;4.57;;;3.00;;
25169;SDS011;13129;48.012;10.352;2023-05-10T15:22:08;7.95;;;5.50;;
25169;SDS011;13129;48.012;10.352;2023-05-10T15:24:34;4.30;;;3.30;;
25169;SDS011;13129;48.012;10.352;2023-05-10T15:26:59;4.45;;;3.35;;
25169;SDS011;13129;48.012;10.352;2023-05-10T15:29:25;4.97;;;3.55;;
25169;SDS011;13129;48.012;10.352;2023-05-10T15:31:51;3.05;;;2.80;;
25169;SDS011;13129;48.012;10.352;2023-05-10T15:34:17;3.63;;;2.47;;
25169;SDS011;13129;48.012;10.352;2023-05-10T15:36:43;15.77;;;10.18;;
25169;SDS011;13129;48.012;10.352;2023-05-10T15:39:10;8.27;;;6.32;;
25169;SDS011;13129;48.012;10.352;2023-05-10T15:41:36;3.10;;;2.47;;
25169;SDS011;13129;48.012;10.352;2023-05-10T15:44:02;2.25;;;2.05;;
25169;SDS011;13129;48.012;10.352;2023-05-10T15:46:28;2.42;;;2.22;;
25169;SDS011;13129;48.012;10.352;2023-05-10T15:48:55;2.88;;;2.30;;
25169;SDS011;13129;48.012;10.352;2023-05-10T15:51:21;3.25;;;2.97;;
25169;SDS011;13129;48.012;10.352;2023-05-10T15:53:47;2.63;;;1.92;;
25169;SDS011;13129;48.012;10.352;2023-05-10T15:56:13;2.58;;;2.20;;
25169;SDS011;13129;48.012;10.352;2023-05-10T15:58:39;2.17;;;1.98;;
25169;SDS011;13129;48.012;10.352;2023-05-10T16:01:06;1.95;;;1.80;;
25169;SDS011;13129;48.012;10.352;2023-05-10T16:03:35;2.70;;;2.47;;
25169;SDS011;13129;48.012;10.352;2023-05-10T16:06:00;3.80;;;2.25;;
25169;SDS011;13129;48.012;10.352;2023-05-10T16:08:26;9.65;;;7.57;;
25169;SDS011;13129;48.012;10.352;2023-05-10T16:10:54;5.93;;;4.97;;
25169;SDS011;13129;48.012;10.352;2023-05-10T16:13:21;6.63;;;4.57;;
25169;SDS011;13129;48.012;10.352;2023-05-10T16:15:47;5.32;;;3.70;;
25169;SDS011;13129;48.012;10.352;2023-05-10T16:18:12;3.53;;;3.20;;
25169;SDS011;13129;48.012;10.352;2023-05-10T16:20:38;5.18;;;4.35;;
25169;SDS011;13129;48.012;10.352;2023-05-10T16:23:04;3.60;;;3.38;;
25169;SDS011;13129;48.012;10.352;2023-05-10T16:25:32;5.63;;;3.28;;
25169;SDS011;13129;48.012;10.352;2023-05-10T16:27:57;2.65;;;2.45;;
25169;SDS011;13129;48.012;10.352;2023-05-10T16:30:24;2.90;;;2.50;;
25169;SDS011;13129;48.012;10.352;2023-05-10T16:32:51;3.10;;;2.90;;
25169;SDS011;13129;48.012;10.352;2023-05-10T16:35:17;2.58;;;2.38;;
25169;SDS011;13129;48.012;10.352;2023-05-10T16:37:43;2.60;;;2.10;;
25169;SDS011;13129;48.012;10.352;2023-05-10T16:40:09;2.25;;;2.05;;
25169;SDS011;13129;48.012;10.352;2023-05-10T16:42:35;3.03;;;2.72;;
25169;SDS011;13129;48.012;10.352;2023-05-10T16:45:01;3.88;;;3.42;;
25169;SDS011;13129;48.012;10.352;2023-05-10T16:47:35;3.50;;;3.20;;
25169;SDS011;13129;48.012;10.352;2023-05-10T16:50:02;4.28;;;2.20;;
25169;SDS011;13129;48.012;10.352;2023-05-10T16:52:29;2.72;;;2.03;;
25169;SDS011;13129;48.012;10.352;2023-05-10T16:54:56;3.33;;;3.00;;
25169;SDS011;13129;48.012;10.352;2023-05-10T16:57:22;10.48;;;7.90;;
25169;SDS011;13129;48.012;10.352;2023-05-10T16:59:48;3.58;;;2.80;;
25169;SDS011;13129;48.012;10.352;2023-05-10T17:02:17;2.50;;;2.30;;
25169;SDS011;13129;48.012;10.352;2023-05-10T17:04:43;4.53;;;2.65;;
25169;SDS011;13129;48.012;10.352;2023-05-10T17:07:09;2.53;;;2.35;;
25169;SDS011;13129;48.012;10.352;2023-05-10T17:09:37;3.38;;;2.95;;
25169;SDS011;13129;48.012;10.352;2023-05-10T17:12:03;2.90;;;2.60;;
25169;SDS011;13129;48.012;10.352;2023-05-10T17:14:28;2.78;;;2.20;;
25169;SDS011;13129;48.012;10.352;2023-05-10T17:16:54;3.35;;;2.33;;
25169;SDS011;13129;48.012;10.352;2023-05-10T17:19:20;2.92;;;2.72;;
25169;SDS011;13129;48.012;10.352;2023-05-10T17:21:45;2.60;;;2.40;;
25169;SDS011;13129;48.012;10.352;2023-05-10T17:24:12;3.20;;;2.90;;
25169;SDS011;13129;48.012;10.352;2023-05-10T17:26:38;2.80;;;2.60;;
25169;SDS011;13129;48.012;10.352;2023-05-10T17:29:03;2.30;;;2.10;;
25169;SDS011;13129;48.012;10.352;2023-05-10T17:31:29;3.58;;;2.90;;
25169;SDS011;13129;48.012;10.352;2023-05-10T17:33:56;3.13;;;2.10;;
25169;SDS011;13129;48.012;10.352;2023-05-10T17:36:22;3.72;;;2.30;;
25169;SDS011;13129;48.012;10.352;2023-05-10T17:38:47;2.40;;;2.20;;
25169;SDS011;13129;48.012;10.352;2023-05-10T17:41:13;2.58;;;2.15;;
25169;SDS011;13129;48.012;10.352;2023-05-10T17:43:39;6.43;;;3.65;;
25169;SDS011;13129;48.012;10.352;2023-05-10T17:46:04;2.25;;;2.05;;
25169;SDS011;13129;48.012;10.352;2023-05-10T17:48:30;4.70;;;2.92;;
25169;SDS011;13129;48.012;10.352;2023-05-10T17:50:56;5.00;;;3.25;;
25169;SDS011;13129;48.012;10.352;2023-05-10T17:53:21;2.90;;;2.35;;
25169;SDS011;13129;48.012;10.352;2023-05-10T17:55:47;2.75;;;2.50;;
25169;SDS011;13129;48.012;10.352;2023-05-10T17:58:15;4.07;;;2.40;;
25169;SDS011;13129;48.012;10.352;2023-05-10T18:00:40;3.92;;;2.70;;
25169;SDS011;13129;48.012;10.352;2023-05-10T18:03:06;3.38;;;3.08;;
25169;SDS011;13129;48.012;10.352;2023-05-10T18:05:35;3.75;;;3.10;;
25169;SDS011;13129;48.012;10.352;2023-05-10T18:08:03;4.38;;;3.30;;
25169;SDS011;13129;48.012;10.352;2023-05-10T18:10:29;4.10;;;3.20;;
25169;SDS011;13129;48.012;10.352;2023-05-10T18:12:55;3.20;;;2.90;;
25169;SDS011;13129;48.012;10.352;2023-05-10T18:15:22;4.55;;;3.20;;
25169;SDS011;13129;48.012;10.352;2023-05-10T18:17:48;4.38;;;3.95;;
25169;SDS011;13129;48.012;10.352;2023-05-10T18:20:14;4.68;;;3.60;;
25169;SDS011;13129;48.012;10.352;2023-05-10T18:22:39;3.58;;;3.28;;
25169;SDS011;13129;48.012;10.352;2023-05-10T18:25:05;4.05;;;2.95;;
25169;SDS011;13129;48.012;10.352;2023-05-10T18:27:31;3.47;;;2.85;;
25169;SDS011;13129;48.012;10.352;2023-05-10T18:29:57;4.30;;;3.13;;
25169;SDS011;13129;48.012;10.352;2023-05-10T18:32:23;2.90;;;2.70;;
25169;SDS011;13129;48.012;10.352;2023-05-10T18:34:48;4.70;;;2.95;;